Flight Track Log - Related Links

Times and Time Zones

All times are in EDT time to prevent confusion due to time zone crossing. See the ASH3770 flight status page for this flight to view local times or setup timezone preferences in your user account.

Time Position Orientation Groundspeed Altitude Reporting Facility
EDT Latitude Longitude Course Direction KTS MPH feet Rate Location/Type
Sun 12:58:55 PM 38.9500 -77.5000 252° West 172 198 1,600  Level Potomac TRACON
Sun 12:59:55 PM 38.9333 -77.5667 252° West 218 251 3,600 2,129 Climbing Potomac TRACON
Sun 01:00:28 PM 38.9192 -77.6272 253° West 229 264 4,900 2,387 Climbing Washington Center
Sun 01:01:28 PM 38.9114 -77.7097 263° West 248 285 7,300 2,450 Climbing Washington Center
Sun 01:02:28 PM 38.9014 -77.8028 262° West 255 293 9,800 2,150 Climbing Washington Center
Sun 01:03:28 PM 38.8889 -77.9092 261° West 280 322 11,600 1,900 Climbing Washington Center
Sun 01:04:28 PM 38.8764 -78.0208 262° West 306 352 13,600 2,150 Climbing Washington Center
Sun 01:05:28 PM 38.8636 -78.1350 262° West 323 372 15,900 1,950 Climbing Washington Center
Sun 01:06:28 PM 38.8547 -78.2572 265° West 335 386 17,500 1,500 Climbing Washington Center
Sun 01:07:28 PM 38.8539 -78.3828 270° West 341 392 18,900 1,550 Climbing Washington Center
Sun 01:08:28 PM 38.8531 -78.5078 270° West 348 400 20,600 1,850 Climbing Washington Center
Sun 01:09:28 PM 38.8522 -78.6306 270° West 348 400 22,600 1,500 Climbing Washington Center
Sun 01:10:28 PM 38.8486 -78.7608 268° West 353 406 23,600 1,200 Climbing Washington Center
Sun 01:11:28 PM 38.8472 -78.8917 269° West 363 418 25,000 1,250 Climbing Washington Center
Sun 01:12:28 PM 38.8458 -79.0194 269° West 368 423 26,100 1,100 Climbing Washington Center
Sun 01:13:28 PM 38.8439 -79.1553 269° West 368 423 27,200 1,050 Climbing Washington Center
Sun 01:14:28 PM 38.8256 -79.2822 260° West 368 423 28,200 1,200 Climbing Washington Center
Sun 01:15:28 PM 38.8047 -79.4117 258° West 373 429 29,600 1,400 Climbing Washington Center
Sun 01:16:28 PM 38.7819 -79.5411 257° West 373 429 31,000 1,250 Climbing Washington Center
Sun 01:17:28 PM 38.7589 -79.6678 257° West 373 429 32,100 852 Climbing Washington Center
Sun 01:19:03 PM 38.7242 -79.8447 256° West 351 404 33,200 650 Climbing Indianapolis Center
Sun 01:20:05 PM 38.7011 -79.9686 257° West 358 412 33,800 387 Climbing Indianapolis Center
Sun 01:21:07 PM 38.6775 -80.0958 257° West 365 420 34,000 98 Climbing Indianapolis Center
Sun 01:22:08 PM 38.6528 -80.2269 256° West 378 435 34,000  Level Indianapolis Center
Sun 01:23:10 PM 38.6281 -80.3603 257° West 384 442 34,000  Level Indianapolis Center
Sun 01:24:12 PM 38.6022 -80.4911 256° West 379 436 34,000  Level Indianapolis Center
Sun 01:25:14 PM 38.5672 -80.6450 254° West 377 434 34,000  Level Indianapolis Center
Sun 01:26:16 PM 38.5347 -80.7706 252° West 373 429 34,000  Level Indianapolis Center
Sun 01:27:17 PM 38.5025 -80.8975 252° West 374 430 34,000  Level Indianapolis Center
Sun 01:28:19 PM 38.4689 -81.0264 252° West 380 437 34,000  Level Indianapolis Center
Sun 01:29:21 PM 38.4361 -81.1572 252° West 384 442 34,000  Level Indianapolis Center
Sun 01:30:23 PM 38.4019 -81.2861 251° West 380 437 34,000  Level Indianapolis Center
Sun 01:31:24 PM 38.3683 -81.4178 252° West 386 444 34,000  Level Indianapolis Center
Sun 01:32:26 PM 38.3344 -81.5475 252° West 383 441 34,000  Level Indianapolis Center
Sun 01:33:28 PM 38.3000 -81.6800 252° West 389 448 34,000 244 Level Indianapolis Center
Sun 01:34:29 PM 38.2656 -81.8119 252° West 392 451 34,500 683 Climbing Indianapolis Center
Sun 01:35:31 PM 38.2242 -81.9694 252° West 390 449 35,400 726 Climbing Indianapolis Center
Sun 01:36:33 PM 38.1892 -82.0989 251° West 387 445 36,000 290 Climbing Indianapolis Center
Sun 01:37:35 PM 38.1547 -82.2283 251° West 385 443 36,000  Level Indianapolis Center
Sun 01:38:36 PM 38.1200 -82.3583 251° West 386 444 36,000  Level Indianapolis Center
Sun 01:39:38 PM 38.0872 -82.4828 252° West 377 434 36,000  Level Indianapolis Center
Sun 01:40:40 PM 38.0522 -82.6089 251° West 379 436 36,000  Level Indianapolis Center
Sun 01:41:42 PM 38.0111 -82.7600 251° West 387 445 36,000  Level Indianapolis Center
Sun 01:42:43 PM 37.9753 -82.8894 251° West 389 448 36,000  Level Indianapolis Center
Sun 01:43:45 PM 37.9406 -83.0181 251° West 386 444 36,000  Level Indianapolis Center
Sun 01:44:47 PM 37.9050 -83.1447 250° West 383 441 36,000  Level Indianapolis Center
Sun 01:45:48 PM 37.8697 -83.2692 250° West 378 435 36,000  Level Indianapolis Center
Sun 01:46:50 PM 37.8356 -83.3933 251° West 376 433 36,000  Level Indianapolis Center
Sun 01:47:52 PM 37.7931 -83.5406 250° West 380 437 36,000  Level Indianapolis Center
Sun 01:48:54 PM 37.7578 -83.6656 250° West 380 437 36,000  Level Indianapolis Center
Sun 01:49:55 PM 37.7219 -83.7917 250° West 380 437 36,000  Level Indianapolis Center
Sun 01:50:57 PM 37.6856 -83.9194 250° West 386 444 36,000  Level Indianapolis Center
Sun 01:51:59 PM 37.6472 -84.0511 250° West 396 456 36,000  Level Indianapolis Center
Sun 01:53:01 PM 37.6103 -84.1814 250° West 395 455 36,000  Level Indianapolis Center
Sun 01:54:02 PM 37.5664 -84.3297 250° West 390 449 36,000  Level Indianapolis Center
Sun 01:55:04 PM 37.5308 -84.4575 251° West 387 445 36,000  Level Indianapolis Center
Sun 01:56:06 PM 37.4925 -84.5844 249° West 387 445 36,000  Level Indianapolis Center
Sun 01:57:07 PM 37.4544 -84.7111 249° West 387 445 36,000  Level Indianapolis Center
Sun 01:58:09 PM 37.4178 -84.8383 250° West 388 447 36,000  Level Indianapolis Center
Sun 01:59:11 PM 37.3794 -84.9667 249° West 390 449 36,000  Level Indianapolis Center
Sun 02:00:13 PM 37.3356 -85.1156 250° West 391 450 36,000  Level Indianapolis Center
Sun 02:01:15 PM 37.2972 -85.2433 249° West 391 450 36,000  Level Indianapolis Center
Sun 02:02:16 PM 37.2578 -85.3722 249° West 394 453 36,000  Level Indianapolis Center
Sun 02:03:18 PM 37.2183 -85.5011 249° West 395 455 36,000  Level Indianapolis Center
Sun 02:04:20 PM 37.1814 -85.6250 250° West 396 456 36,000  Level Indianapolis Center
Sun 02:04:58 PM 37.1575 -85.7111 251° West 401 461 36,000  Level Memphis Center
Sun 02:05:58 PM 37.1164 -85.8411 248° West 401 461 36,000  Level Memphis Center
Sun 02:06:58 PM 37.0733 -85.9811 249° West 395 455 36,000  Level Memphis Center
Sun 02:07:58 PM 37.0322 -86.1108 248° West 401 461 36,000  Level Memphis Center
Sun 02:08:58 PM 36.9925 -86.2375 249° West 401 461 36,000  Level Memphis Center
Sun 02:09:58 PM 36.9511 -86.3694 249° West 401 461 36,000  Level Memphis Center
Sun 02:10:58 PM 36.9028 -86.4914 244° Southwest 400 460 36,000  Level Memphis Center
Sun 02:11:58 PM 36.8419 -86.6083 237° Southwest 407 468 36,000  Level Memphis Center
Sun 02:12:58 PM 36.7786 -86.7228 235° Southwest 407 468 36,000  Level Memphis Center
Sun 02:13:58 PM 36.7172 -86.8392 237° Southwest 407 468 36,000  Level Memphis Center
Sun 02:14:58 PM 36.6558 -86.9558 237° Southwest 407 468 36,000  Level Memphis Center
Sun 02:15:58 PM 36.5944 -87.0719 237° Southwest 407 468 36,000  Level Memphis Center
Sun 02:16:58 PM 36.5308 -87.1908 236° Southwest 407 468 36,000  Level Memphis Center
Sun 02:17:58 PM 36.4669 -87.3069 236° Southwest 407 468 36,000  Level Memphis Center
Sun 02:18:58 PM 36.4011 -87.4253 235° Southwest 407 468 36,000  Level Memphis Center
Sun 02:19:58 PM 36.3372 -87.5411 236° Southwest 407 468 36,000  Level Memphis Center
Sun 02:20:58 PM 36.2731 -87.6567 235° Southwest 407 468 36,000  Level Memphis Center
Sun 02:21:58 PM 36.2147 -87.7614 235° Southwest 407 468 36,000  Level Memphis Center
Sun 02:22:58 PM 36.1525 -87.8764 236° Southwest 407 468 36,000  Level Memphis Center
Sun 02:23:58 PM 36.0881 -87.9914 235° Southwest 407 468 36,000  Level Memphis Center
Sun 02:24:58 PM 36.0214 -88.1114 236° Southwest 412 474 36,000  Level Memphis Center
Sun 02:25:58 PM 35.9586 -88.2183 234° Southwest 406 467 36,000  Level Memphis Center
Sun 02:26:58 PM 35.8919 -88.3353 235° Southwest 406 467 36,000  Level Memphis Center
Sun 02:27:58 PM 35.8269 -88.4547 236° Southwest 411 473 36,000  Level Memphis Center
Sun 02:28:58 PM 35.7539 -88.5817 235° Southwest 411 473 36,000  Level Memphis Center
Sun 02:29:58 PM 35.6886 -88.6981 235° Southwest 416 479 36,000  Level Memphis Center
Sun 02:30:58 PM 35.6214 -88.8119 234° Southwest 416 479 36,000  Level Memphis Center
Sun 02:31:58 PM 35.5581 -88.9228 235° Southwest 411 473 36,000  Level Memphis Center
Sun 02:32:58 PM 35.4947 -89.0386 236° Southwest 406 467 36,000  Level Memphis Center
Sun 02:33:58 PM 35.4311 -89.1517 235° Southwest 406 467 36,000  Level Memphis Center
Sun 02:34:58 PM 35.3656 -89.2622 234° Southwest 406 467 36,000  Level Memphis Center
Sun 02:35:58 PM 35.2997 -89.3775 235° Southwest 406 467 36,000  Level Memphis Center
Sun 02:36:58 PM 35.2358 -89.4903 235° Southwest 406 467 36,000  Level Memphis Center
Sun 02:37:58 PM 35.1697 -89.6053 235° Southwest 412 474 36,000  Level Memphis Center
Sun 02:38:58 PM 35.1058 -89.7200 236° Southwest 417 480 36,000  Level Memphis Center
Sun 02:39:58 PM 35.0375 -89.8347 234° Southwest 417 480 36,000  Level Memphis Center
Sun 02:40:58 PM 34.9711 -89.9517 235° Southwest 422 486 36,000  Level Memphis Center
Sun 02:41:58 PM 34.9028 -90.0658 234° Southwest 422 486 36,000  Level Memphis Center
Sun 02:42:58 PM 34.8342 -90.1800 234° Southwest 422 486 36,000  Level Memphis Center
Sun 02:43:58 PM 34.7653 -90.2939 234° Southwest 428 493 36,000  Level Memphis Center
Sun 02:44:58 PM 34.7069 -90.3900 234° Southwest 421 484 36,000  Level Memphis Center
Sun 02:45:58 PM 34.6381 -90.5036 234° Southwest 421 484 36,000  Level Memphis Center
Sun 02:46:58 PM 34.5731 -90.6119 234° Southwest 413 475 36,000  Level Memphis Center
Sun 02:47:58 PM 34.5081 -90.7225 235° Southwest 407 468 36,000  Level Memphis Center
Sun 02:48:58 PM 34.4411 -90.8306 233° Southwest 407 468 36,000  Level Memphis Center
Sun 02:49:58 PM 34.3758 -90.9408 234° Southwest 407 468 36,000  Level Memphis Center
Sun 02:50:58 PM 34.3106 -91.0486 234° Southwest 407 468 36,000  Level Memphis Center
Sun 02:51:58 PM 34.2369 -91.1661 233° Southwest 407 468 36,000  Level Memphis Center
Sun 02:52:58 PM 34.1694 -91.2733 233° Southwest 407 468 36,000  Level Memphis Center
Sun 02:53:58 PM 34.1017 -91.3856 234° Southwest 407 468 36,000  Level Memphis Center
Sun 02:54:58 PM 34.0361 -91.4953 234° Southwest 407 468 36,000  Level Memphis Center
Sun 02:55:58 PM 33.9703 -91.6019 233° Southwest 401 461 36,000  Level Memphis Center
Sun 02:56:58 PM 33.9025 -91.7061 232° Southwest 406 467 36,000  Level Memphis Center
Sun 02:59:18 PM 33.7542 -91.9553 234° Southwest 390 449 36,000  Level Fort Worth Center
Sun 03:00:19 PM 33.6858 -92.0642 233° Southwest 402 463 36,000  Level Fort Worth Center
Sun 03:01:19 PM 33.6236 -92.1703 235° Southwest 407 468 36,000  Level Fort Worth Center
Sun 03:02:19 PM 33.5508 -92.2792 231° Southwest 407 468 36,000  Level Fort Worth Center
Sun 03:03:19 PM 33.4842 -92.3878 234° Southwest 407 468 36,000  Level Fort Worth Center
Sun 03:04:18 PM 33.4178 -92.4961 234° Southwest 407 468 36,000  Level Fort Worth Center
Sun 03:05:19 PM 33.3508 -92.6017 233° Southwest 407 468 36,000  Level Fort Worth Center
Sun 03:06:19 PM 33.2975 -92.6842 232° Southwest 402 463 36,000  Level Fort Worth Center
Sun 03:07:19 PM 33.2331 -92.8042 237° Southwest 402 463 36,000  Level Fort Worth Center
Sun 03:08:18 PM 33.1978 -92.9228 250° West 390 449 36,000  Level Fort Worth Center
Sun 03:09:19 PM 33.1581 -93.0414 248° West 390 449 36,000  Level Fort Worth Center
Sun 03:10:19 PM 33.1183 -93.1600 248° West 390 449 36,000  Level Fort Worth Center
Sun 03:11:18 PM 33.0786 -93.2783 248° West 385 443 36,000  Level Fort Worth Center
Sun 03:12:19 PM 33.0386 -93.3992 248° West 385 443 36,000  Level Fort Worth Center
Sun 03:13:19 PM 32.9964 -93.5175 247° West 385 443 36,000  Level Fort Worth Center
Sun 03:14:18 PM 32.9583 -93.6353 249° West 385 443 36,000  Level Fort Worth Center
Sun 03:15:19 PM 32.9158 -93.7536 247° West 390 449 36,000  Level Fort Worth Center
Sun 03:16:19 PM 32.8756 -93.8764 249° West 390 449 36,000  Level Fort Worth Center
Sun 03:17:18 PM 32.8369 -93.9942 249° West 390 449 36,000  Level Fort Worth Center
Sun 03:18:19 PM 32.7942 -94.1119 247° West 390 449 36,000  Level Fort Worth Center
Sun 03:19:18 PM 32.7536 -94.2319 248° West 395 455 36,000  Level Fort Worth Center
Sun 03:20:18 PM 32.7106 -94.3494 246° West 395 455 36,000  Level Fort Worth Center
Sun 03:21:19 PM 32.6717 -94.4692 249° West 395 455 36,000  Level Fort Worth Center
Sun 03:22:19 PM 32.6306 -94.5839 247° West 395 455 36,000  Level Fort Worth Center
Sun 03:23:19 PM 32.5892 -94.7011 247° West 395 455 36,000  Level Fort Worth Center
Sun 03:24:19 PM 32.5481 -94.8256 249° West 383 441 36,000  Level Fort Worth Center
Sun 03:25:19 PM 32.5064 -94.9403 247° West 378 435 36,000  Level Fort Worth Center
Sun 03:26:19 PM 32.4711 -95.0519 249° West 378 435 36,000  Level Fort Worth Center
Sun 03:27:19 PM 32.4314 -95.1636 247° West 378 435 36,000  Level Fort Worth Center
Sun 03:28:19 PM 32.3956 -95.2656 247° West 373 429 36,000  Level Fort Worth Center
Sun 03:29:18 PM 32.3536 -95.3819 247° West 380 437 36,000  Level Fort Worth Center
Sun 03:30:19 PM 32.3136 -95.4961 248° West 381 438 36,000  Level Fort Worth Center
Sun 03:31:19 PM 32.2714 -95.6100 246° West 386 444 36,000  Level Fort Worth Center
Sun 03:32:18 PM 32.2314 -95.7286 248° West 381 438 36,000  Level Fort Worth Center
Sun 03:33:19 PM 32.1847 -95.8472 245° Southwest 391 450 36,000  Level Fort Worth Center
Sun 03:34:19 PM 32.1406 -95.9756 248° West 391 450 36,000  Level Fort Worth Center
Sun 03:35:18 PM 32.0978 -96.0892 246° West 392 451 36,000  Level Fort Worth Center
Sun 03:36:19 PM 32.0572 -96.2025 247° West 387 445 36,000  Level Fort Worth Center
Sun 03:37:18 PM 32.0164 -96.3156 247° West 378 435 36,000  Level Fort Worth Center
Sun 03:38:18 PM 31.9756 -96.4239 246° West 371 427 36,000  Level Fort Worth Center
Sun 03:39:19 PM 31.9367 -96.5297 247° West 366 421 36,000  Level Fort Worth Center
Sun 03:40:18 PM 31.8978 -96.6425 248° West 366 421 36,000  Level Fort Worth Center
Sun 03:41:18 PM 31.8567 -96.7556 247° West 372 428 36,000 -99 Level Fort Worth Center
Sun 03:42:19 PM 31.8133 -96.8683 246° West 378 435 35,800 -1,000 Descending Fort Worth Center
Sun 03:43:18 PM 31.7719 -96.9833 247° West 378 435 34,000 -6,958 Descending Fort Worth Center
Sun 03:44:18 PM 31.7306 -97.0908 246° West 373 429 22,000 -1,537 Descending Fort Worth Center
Sun 03:45:19 PM 31.6767 -97.1839 236° Southwest 378 435 30,900 4,701 Climbing Fort Worth Center
Sun 03:45:55 PM 31.6183 -97.2297 214° Southwest 405 466 29,600 -2,082 Descending Houston Center
Sun 03:46:57 PM 31.4953 -97.2467 187° South 445 512 27,500 -2,177 Descending Houston Center
Sun 03:47:59 PM 31.3697 -97.2303 174° South 449 517 25,100 -2,371 Descending Houston Center
Sun 03:49:01 PM 31.2422 -97.2139 174° South 446 513 22,600 -2,565 Descending Houston Center
Sun 03:50:03 PM 31.1164 -97.2453 192° South 397 457 19,800 -2,323 Descending Houston Center
Sun 03:51:05 PM 31.0178 -97.2836 198° South 378 435 17,800 -1,984 Descending Houston Center
Sun 03:52:07 PM 30.9269 -97.3200 199° South 362 417 15,700 -2,032 Descending Houston Center
Sun 03:53:09 PM 30.8386 -97.3528 198° South 340 391 13,600 -2,064 Descending Houston Center
Sun 03:54:12 PM 30.7436 -97.3953 201° Southwest 316 364 11,400 -1,824 Descending Houston Center
Sun 03:55:14 PM 30.6794 -97.4464 214° Southwest 284 327 9,800 -1,742 Descending Houston Center
Sun 03:56:16 PM 30.6156 -97.4942 213° Southwest 274 315 7,800 -1,887 Descending Houston Center
Sun 03:57:18 PM 30.5517 -97.5400 212° Southwest 269 310 5,900 -1,790 Descending Houston Center
Sun 03:58:20 PM 30.4906 -97.5844 212° Southwest 260 299 4,100 -903 Descending Houston Center
Sun 04:00:24 PM 30.3892 -97.6575 212° Southwest 211 243 3,100 -355 Descending Houston Center
Sun 04:01:26 PM 30.3317 -97.6853 203° Southwest 198 228 3,000 -581 Descending Houston Center
Sun 04:02:28 PM 30.2872 -97.6817 176° South 170 196 1,900 -1,065 Descending Houston Center

Login

Don't have an account? Register now (free) for customized features, flight alerts, and more!